createdAt,value
2019-02-08T00:00:58.678Z,6.47
2019-02-08T00:03:32.717Z,8.20
2019-02-08T00:06:13.556Z,5.77
2019-02-08T00:08:48.468Z,7.17
2019-02-08T00:11:23.564Z,8.18
2019-02-08T00:14:01.437Z,6.57
2019-02-08T00:16:34.788Z,11.23
2019-02-08T00:19:08.461Z,6.23
2019-02-08T00:21:41.245Z,5.37
2019-02-08T00:24:14.606Z,7.20
2019-02-08T00:26:50.387Z,5.73
2019-02-08T00:29:23.241Z,5.27
2019-02-08T00:31:56.359Z,8.27
2019-02-08T00:34:29.176Z,10.77
2019-02-08T00:37:02.440Z,10.03
2019-02-08T00:39:36.412Z,11.90
2019-02-08T00:42:27.081Z,9.03
2019-02-08T00:45:30.950Z,7.10
2019-02-08T00:48:07.325Z,9.70
2019-02-08T00:50:40.115Z,7.47
2019-02-08T00:53:16.402Z,7.90
2019-02-08T00:55:51.801Z,9.63
2019-02-08T00:58:26.758Z,7.03
2019-02-08T01:01:01.236Z,11.87
2019-02-08T01:03:38.608Z,7.33
2019-02-08T01:06:16.025Z,7.00
2019-02-08T01:08:52.487Z,8.77
2019-02-08T01:11:25.339Z,9.43
2019-02-08T01:13:59.585Z,9.60
2019-02-08T01:16:33.388Z,8.60
2019-02-08T01:19:07.540Z,7.83
2019-02-08T01:21:40.309Z,8.37
2019-02-08T01:24:12.987Z,9.07
2019-02-08T01:26:46.925Z,10.30
2019-02-08T01:29:20.166Z,7.63
2019-02-08T01:31:56.134Z,13.90
2019-02-08T01:34:30.538Z,10.93
2019-02-08T01:37:03.202Z,11.40
2019-02-08T01:39:38.069Z,6.37
2019-02-08T01:42:10.815Z,7.87
2019-02-08T01:44:46.009Z,9.67
2019-02-08T01:47:20.759Z,10.48
2019-02-08T01:49:54.559Z,6.50
2019-02-08T01:52:27.655Z,8.87
2019-02-08T01:55:00.282Z,8.83
2019-02-08T01:57:33.911Z,9.67
2019-02-08T02:00:20.644Z,9.00
2019-02-08T02:02:54.387Z,5.83
2019-02-08T02:05:28.618Z,7.63
2019-02-08T02:08:05.116Z,8.40
2019-02-08T02:10:43.697Z,7.07
2019-02-08T02:13:17.191Z,8.50
2019-02-08T02:15:50.446Z,8.47
2019-02-08T02:18:23.863Z,6.53
2019-02-08T02:20:57.191Z,7.77
2019-02-08T02:23:31.243Z,9.43
2019-02-08T02:26:06.086Z,6.53
2019-02-08T02:28:42.643Z,6.67
2019-02-08T02:31:15.586Z,9.80
2019-02-08T02:33:48.264Z,9.83
2019-02-08T02:36:21.532Z,9.10
2019-02-08T02:38:54.450Z,10.52
2019-02-08T02:41:28.329Z,7.10
2019-02-08T02:44:01.735Z,10.63
2019-02-08T02:46:36.960Z,6.80
2019-02-08T02:49:09.727Z,12.00
2019-02-08T02:51:45.162Z,12.50
2019-02-08T02:54:18.436Z,7.07
2019-02-08T02:56:51.116Z,5.97
2019-02-08T02:59:24.419Z,5.80
2019-02-08T03:01:59.057Z,9.17
2019-02-08T03:04:32.404Z,8.60
2019-02-08T03:07:05.390Z,9.30
2019-02-08T03:09:39.524Z,9.60
2019-02-08T03:12:12.089Z,9.82
2019-02-08T03:14:44.807Z,9.37
2019-02-08T03:17:17.730Z,8.63
2019-02-08T03:19:52.129Z,10.17
2019-02-08T03:22:25.793Z,8.87
2019-02-08T03:24:59.492Z,7.57
2019-02-08T03:27:32.198Z,8.70
2019-02-08T03:30:10.582Z,7.77
2019-02-08T03:32:44.655Z,8.07
2019-02-08T03:35:24.130Z,7.97
2019-02-08T03:37:57.849Z,11.20
2019-02-08T03:40:32.748Z,7.67
2019-02-08T03:43:08.115Z,11.13
2019-02-08T03:45:42.973Z,8.90
2019-02-08T03:48:17.003Z,6.75
2019-02-08T03:50:50.120Z,8.00
2019-02-08T03:53:22.855Z,8.57
2019-02-08T03:55:58.702Z,6.73
2019-02-08T03:58:33.050Z,9.33
2019-02-08T04:01:09.471Z,6.27
2019-02-08T04:03:43.507Z,7.30
2019-02-08T04:06:16.196Z,9.70
2019-02-08T04:08:50.488Z,8.23
2019-02-08T04:11:24.617Z,6.03
2019-02-08T04:13:58.262Z,10.60
2019-02-08T04:16:32.989Z,8.77
2019-02-08T04:19:06.035Z,10.40
2019-02-08T04:21:40.374Z,7.63
2019-02-08T04:24:13.383Z,9.63
2019-02-08T04:26:46.499Z,9.90
2019-02-08T04:29:20.508Z,8.70
2019-02-08T04:31:55.252Z,7.63
2019-02-08T04:34:28.805Z,8.77
2019-02-08T04:37:01.428Z,8.10
2019-02-08T04:39:40.021Z,7.53
2019-02-08T04:42:13.412Z,6.20
2019-02-08T04:44:47.353Z,6.60
2019-02-08T04:47:20.619Z,5.53
2019-02-08T04:49:53.347Z,8.30
2019-02-08T04:52:27.497Z,6.90
2019-02-08T04:55:01.570Z,9.77
2019-02-08T04:57:36.353Z,5.27
2019-02-08T05:00:20.260Z,7.83
2019-02-08T05:02:54.511Z,10.40
2019-02-08T05:05:29.754Z,6.97
2019-02-08T05:08:04.781Z,7.73
2019-02-08T05:10:37.644Z,8.63
2019-02-08T05:13:11.221Z,5.87
2019-02-08T05:15:45.608Z,7.43
2019-02-08T05:18:19.835Z,8.07
2019-02-08T05:20:54.525Z,8.53
2019-02-08T05:23:27.590Z,10.17
2019-02-08T05:26:00.400Z,7.90
2019-02-08T05:28:34.082Z,8.95
2019-02-08T05:31:08.020Z,8.93
2019-02-08T05:33:40.551Z,7.17
2019-02-08T05:36:13.352Z,6.93
2019-02-08T05:38:49.302Z,7.32
2019-02-08T05:41:21.994Z,8.23
2019-02-08T05:43:54.670Z,8.07
2019-02-08T05:46:27.913Z,7.80
2019-02-08T05:49:00.931Z,7.90
2019-02-08T05:51:34.119Z,7.77
2019-02-08T05:54:07.197Z,8.18
2019-02-08T05:56:39.873Z,9.00
2019-02-08T05:59:13.568Z,6.77
2019-02-08T06:01:47.571Z,8.73
2019-02-08T06:04:20.243Z,8.32
2019-02-08T06:06:52.875Z,8.40
2019-02-08T06:09:25.706Z,6.63
2019-02-08T06:11:58.378Z,6.20
2019-02-08T06:14:31.394Z,5.73
2019-02-08T06:17:05.415Z,7.27
2019-02-08T06:19:37.975Z,9.17
2019-02-08T06:22:10.647Z,5.73
2019-02-08T06:24:44.747Z,7.40
2019-02-08T06:27:17.809Z,8.02
2019-02-08T06:29:50.673Z,7.77
2019-02-08T06:32:23.361Z,8.60
2019-02-08T06:34:56.305Z,6.30
2019-02-08T06:37:29.193Z,8.03
2019-02-08T06:40:01.946Z,4.87
2019-02-08T06:42:34.733Z,5.67
2019-02-08T06:45:09.066Z,6.80
2019-02-08T06:47:47.357Z,11.37
2019-02-08T06:50:22.726Z,8.57
2019-02-08T06:52:55.772Z,7.97
2019-02-08T06:55:29.077Z,8.27
2019-02-08T06:58:16.482Z,8.60
2019-02-08T07:01:09.554Z,5.70
2019-02-08T07:03:47.575Z,9.83
2019-02-08T07:06:33.152Z,8.10
2019-02-08T07:09:35.211Z,9.05
2019-02-08T07:12:28.265Z,8.37
2019-02-08T07:15:14.976Z,11.30
2019-02-08T07:18:02.130Z,6.67
2019-02-08T07:20:47.087Z,10.77
2019-02-08T07:23:43.091Z,8.77
2019-02-08T07:26:48.234Z,9.05
2019-02-08T07:29:26.685Z,7.43
2019-02-08T07:32:19.043Z,5.40
2019-02-08T07:35:03.339Z,8.53
2019-02-08T07:37:44.823Z,7.23
2019-02-08T07:40:30.122Z,6.87
2019-02-08T07:43:14.666Z,8.90
2019-02-08T07:45:56.455Z,9.27
2019-02-08T07:48:54.636Z,11.00
2019-02-08T07:51:45.083Z,9.50
2019-02-08T07:54:23.029Z,7.17
2019-02-08T07:57:06.537Z,6.70
2019-02-08T07:59:46.157Z,6.60
2019-02-08T08:02:43.676Z,7.05
2019-02-08T08:05:41.089Z,7.07
2019-02-08T08:08:23.792Z,9.47
2019-02-08T08:11:05.845Z,9.80
2019-02-08T08:13:49.894Z,6.87
2019-02-08T08:16:35.834Z,8.90
2019-02-08T08:19:35.501Z,7.90
2019-02-08T08:22:33.725Z,8.60
2019-02-08T08:25:16.747Z,7.17
2019-02-08T08:28:12.720Z,8.73
2019-02-08T08:30:58.588Z,6.87
2019-02-08T08:33:49.535Z,6.60
2019-02-08T08:37:13.809Z,9.95
2019-02-08T08:40:32.031Z,6.27
2019-02-08T08:43:46.561Z,5.50
2019-02-08T08:47:31.490Z,6.63
2019-02-08T08:51:07.384Z,7.03
2019-02-08T08:54:56.521Z,8.83
2019-02-08T08:58:05.585Z,6.75
2019-02-08T09:01:37.526Z,4.70
2019-02-08T09:05:18.509Z,8.40
2019-02-08T09:08:44.743Z,5.78
2019-02-08T09:12:13.387Z,3.77
2019-02-08T09:15:33.768Z,4.75
2019-02-08T09:18:59.394Z,4.97
2019-02-08T09:22:59.124Z,5.62
2019-02-08T09:26:33.706Z,5.12
2019-02-08T09:30:14.004Z,5.47
2019-02-08T09:33:28.343Z,7.63
2019-02-08T09:36:56.609Z,6.03
2019-02-08T09:40:37.035Z,5.95
2019-02-08T09:43:56.979Z,5.23
2019-02-08T09:47:15.165Z,6.70
2019-02-08T09:51:01.732Z,4.65
2019-02-08T09:54:47.342Z,6.28
2019-02-08T09:58:15.604Z,5.85
2019-02-08T10:02:02.881Z,3.80
2019-02-08T10:05:11.812Z,5.30
2019-02-08T10:08:58.270Z,5.05
2019-02-08T10:12:24.159Z,4.47
2019-02-08T10:15:39.740Z,4.32
2019-02-08T10:18:58.386Z,3.83
2019-02-08T10:22:09.071Z,6.47
2019-02-08T10:25:17.122Z,3.77
2019-02-08T10:28:31.020Z,5.60
2019-02-08T10:31:44.822Z,5.53
2019-02-08T10:34:56.007Z,6.00
2019-02-08T10:38:05.069Z,3.60
2019-02-08T10:41:30.725Z,2.70
2019-02-08T10:45:17.209Z,6.03
2019-02-08T10:48:51.075Z,5.07
2019-02-08T10:52:04.612Z,5.00
2019-02-08T10:55:38.625Z,4.20
2019-02-08T10:59:17.102Z,4.75
2019-02-08T11:02:36.590Z,4.90
2019-02-08T11:05:55.086Z,4.43
2019-02-08T11:09:12.520Z,3.10
2019-02-08T11:12:24.621Z,3.50
2019-02-08T11:15:43.896Z,2.83
2019-02-08T11:19:09.921Z,3.60
2019-02-08T11:21:43.466Z,2.70
2019-02-08T11:24:18.683Z,5.20
2019-02-08T11:26:52.807Z,3.00
2019-02-08T11:29:31.102Z,3.67
2019-02-08T11:32:06.135Z,2.90
2019-02-08T11:34:38.781Z,4.60
2019-02-08T11:37:12.825Z,2.20
2019-02-08T11:39:46.804Z,4.90
2019-02-08T11:42:20.582Z,5.67
2019-02-08T11:44:53.072Z,2.90
2019-02-08T11:47:26.206Z,3.47
2019-02-08T11:49:59.169Z,3.20
2019-02-08T11:52:32.966Z,1.70
2019-02-08T11:55:06.851Z,3.13
2019-02-08T11:57:41.015Z,3.73
2019-02-08T12:00:29.900Z,3.13
2019-02-08T12:03:05.668Z,3.17
2019-02-08T12:05:39.092Z,2.10
2019-02-08T12:08:12.391Z,2.40
2019-02-08T12:10:45.954Z,3.83
2019-02-08T12:13:19.468Z,2.87
2019-02-08T12:15:53.744Z,3.60
2019-02-08T12:18:27.498Z,3.63
2019-02-08T12:21:00.189Z,1.50
2019-02-08T12:23:33.007Z,1.80
2019-02-08T12:26:07.632Z,1.23
2019-02-08T12:28:44.424Z,2.33
2019-02-08T12:31:17.734Z,3.53
2019-02-08T12:33:52.319Z,2.90
2019-02-08T12:36:25.710Z,2.80
2019-02-08T12:39:02.906Z,2.97
2019-02-08T12:41:35.978Z,4.70
2019-02-08T12:44:09.395Z,3.57
2019-02-08T12:46:44.175Z,1.63
2019-02-08T12:49:20.542Z,2.80
2019-02-08T12:51:54.586Z,2.00
2019-02-08T12:54:27.368Z,3.97
2019-02-08T12:57:00.796Z,2.30
2019-02-08T12:59:33.923Z,1.77
2019-02-08T13:02:06.659Z,4.83
2019-02-08T13:04:39.948Z,2.07
2019-02-08T13:07:14.808Z,1.97
2019-02-08T13:09:48.277Z,3.03
2019-02-08T13:12:23.375Z,2.10
2019-02-08T13:14:57.974Z,2.00
2019-02-08T13:17:31.800Z,3.67
2019-02-08T13:20:10.743Z,4.50
2019-02-08T13:22:49.200Z,3.90
2019-02-08T13:25:22.335Z,1.83
2019-02-08T13:27:57.064Z,1.67
2019-02-08T13:30:32.246Z,2.20
2019-02-08T13:33:06.146Z,2.33
2019-02-08T13:35:39.258Z,4.03
2019-02-08T13:38:12.942Z,1.53
2019-02-08T13:40:47.620Z,2.70
2019-02-08T13:43:21.758Z,1.90
2019-02-08T13:45:54.548Z,1.87
2019-02-08T13:48:27.252Z,2.40
2019-02-08T13:51:00.720Z,2.93
2019-02-08T13:53:33.462Z,3.10
2019-02-08T13:56:06.299Z,5.95
2019-02-08T13:58:39.453Z,4.70
2019-02-08T14:01:12.252Z,3.00
2019-02-08T14:03:45.213Z,2.63
2019-02-08T14:06:18.878Z,3.90
2019-02-08T14:09:04.452Z,2.37
2019-02-08T14:11:37.310Z,3.28
2019-02-08T14:14:16.615Z,3.47
2019-02-08T14:16:50.009Z,2.40
2019-02-08T14:19:23.335Z,4.13
2019-02-08T14:21:56.813Z,3.93
2019-02-08T14:24:29.607Z,3.50
2019-02-08T14:27:28.446Z,2.63
2019-02-08T14:30:04.357Z,4.17
2019-02-08T14:32:39.199Z,3.07
2019-02-08T14:35:15.630Z,3.60
2019-02-08T14:37:48.579Z,4.22
2019-02-08T14:40:31.746Z,6.13
2019-02-08T14:43:12.492Z,5.00
2019-02-08T14:45:45.337Z,3.60
2019-02-08T14:48:21.398Z,4.53
2019-02-08T14:51:08.145Z,4.63
2019-02-08T14:53:44.548Z,2.50
2019-02-08T14:56:22.366Z,4.40
2019-02-08T14:58:56.115Z,4.10
2019-02-08T15:01:31.276Z,3.50
2019-02-08T15:04:07.145Z,4.63
2019-02-08T15:06:41.249Z,4.73
2019-02-08T15:09:14.590Z,4.97
2019-02-08T15:11:49.242Z,11.68
2019-02-08T15:14:24.883Z,3.23
2019-02-08T15:17:00.002Z,4.03
2019-02-08T15:19:35.858Z,4.80
2019-02-08T15:22:09.861Z,5.22
2019-02-08T15:24:47.442Z,4.47
2019-02-08T15:27:24.382Z,4.73
2019-02-08T15:29:58.137Z,4.97
2019-02-08T15:32:32.213Z,4.63
2019-02-08T15:35:07.495Z,4.67
2019-02-08T15:37:46.939Z,5.73
2019-02-08T15:40:49.795Z,7.37
2019-02-08T15:43:24.762Z,3.87
2019-02-08T15:46:07.018Z,5.60
2019-02-08T15:48:40.633Z,5.20
2019-02-08T15:51:14.272Z,7.97
2019-02-08T15:53:48.687Z,6.37
2019-02-08T15:56:22.258Z,7.90
2019-02-08T15:58:56.565Z,4.87
2019-02-08T16:01:31.695Z,5.53
2019-02-08T16:04:05.473Z,8.63
2019-02-08T16:06:43.786Z,6.47
2019-02-08T16:09:21.795Z,5.20
2019-02-08T16:11:58.066Z,4.37
2019-02-08T16:14:31.212Z,7.33
2019-02-08T16:17:04.592Z,5.47
2019-02-08T16:19:37.590Z,4.87
2019-02-08T16:22:10.316Z,6.30
2019-02-08T16:24:43.975Z,5.00
2019-02-08T16:27:19.140Z,8.90
2019-02-08T16:29:52.538Z,5.28
2019-02-08T16:32:26.035Z,5.07
2019-02-08T16:35:00.593Z,7.40
2019-02-08T16:37:34.953Z,5.17
2019-02-08T16:40:11.613Z,4.73
2019-02-08T16:42:46.923Z,7.43
2019-02-08T16:45:27.520Z,5.70
2019-02-08T16:48:02.037Z,8.30
2019-02-08T16:50:36.865Z,7.22
2019-02-08T16:53:11.617Z,4.47
2019-02-08T16:55:45.179Z,6.63
2019-02-08T16:58:18.422Z,5.63
2019-02-08T17:00:54.519Z,6.67
2019-02-08T17:03:27.252Z,6.70
2019-02-08T17:06:00.250Z,5.23
2019-02-08T17:08:33.629Z,7.60
2019-02-08T17:11:06.717Z,6.63
2019-02-08T17:13:39.586Z,6.80
2019-02-08T17:16:13.017Z,9.13
2019-02-08T17:18:49.329Z,6.05
2019-02-08T17:21:24.547Z,6.77
2019-02-08T17:23:57.815Z,6.53
2019-02-08T17:26:32.983Z,7.57
2019-02-08T17:29:07.782Z,6.30
2019-02-08T17:31:42.554Z,7.90
2019-02-08T17:34:20.630Z,6.00
2019-02-08T17:37:03.844Z,10.33
2019-02-08T17:39:45.204Z,6.43
2019-02-08T17:42:20.032Z,6.63
2019-02-08T17:44:56.688Z,8.60
2019-02-08T17:47:29.469Z,5.67
2019-02-08T17:50:05.344Z,6.40
2019-02-08T17:52:39.638Z,8.93
2019-02-08T17:55:19.409Z,6.53
2019-02-08T17:58:03.009Z,9.90
2019-02-08T18:00:47.899Z,8.30
2019-02-08T18:03:25.175Z,10.02
2019-02-08T18:06:13.724Z,10.70
2019-02-08T18:08:52.511Z,8.48
2019-02-08T18:11:31.004Z,4.63
2019-02-08T18:14:07.924Z,9.83
2019-02-08T18:16:41.679Z,6.03
2019-02-08T18:19:16.678Z,6.93
2019-02-08T18:21:52.856Z,5.23
2019-02-08T18:24:28.155Z,5.57
2019-02-08T18:27:01.831Z,7.75
2019-02-08T18:29:39.207Z,9.40
2019-02-08T18:32:15.454Z,8.83
2019-02-08T18:34:52.458Z,6.87
2019-02-08T18:37:26.499Z,8.97
2019-02-08T18:40:00.840Z,10.50
2019-02-08T18:42:35.639Z,7.07
2019-02-08T18:45:16.762Z,9.37
2019-02-08T18:47:51.389Z,8.37
2019-02-08T18:50:48.988Z,6.23
2019-02-08T18:53:23.219Z,7.93
2019-02-08T18:56:00.707Z,6.45
2019-02-08T18:58:36.022Z,7.60
2019-02-08T19:01:11.042Z,7.20
2019-02-08T19:03:47.963Z,6.18
2019-02-08T19:06:21.676Z,7.90
2019-02-08T19:09:01.718Z,8.17
2019-02-08T19:11:40.003Z,7.70
2019-02-08T19:14:17.249Z,6.10
2019-02-08T19:16:51.271Z,5.97
2019-02-08T19:19:27.666Z,7.47
2019-02-08T19:22:07.705Z,9.07
2019-02-08T19:24:41.448Z,6.17
2019-02-08T19:27:19.807Z,7.40
2019-02-08T19:29:56.569Z,8.40
2019-02-08T19:32:29.976Z,5.27
2019-02-08T19:35:05.659Z,7.43
2019-02-08T19:37:38.722Z,6.73
2019-02-08T19:40:18.476Z,5.53
2019-02-08T19:42:55.413Z,4.87
2019-02-08T19:45:29.867Z,7.80
2019-02-08T19:48:10.806Z,4.53
2019-02-08T19:50:48.381Z,4.47
2019-02-08T19:53:23.480Z,4.20
2019-02-08T19:55:57.197Z,5.85
2019-02-08T19:58:34.548Z,7.03
2019-02-08T20:01:12.143Z,6.43
2019-02-08T20:03:45.411Z,6.37
2019-02-08T20:06:19.829Z,8.33
2019-02-08T20:08:52.743Z,3.73
2019-02-08T20:11:28.775Z,5.80
2019-02-08T20:14:03.935Z,7.93
2019-02-08T20:16:40.414Z,6.27
2019-02-08T20:19:15.857Z,4.37
2019-02-08T20:21:50.611Z,5.20
2019-02-08T20:24:25.353Z,7.13
2019-02-08T20:26:59.750Z,5.90
2019-02-08T20:29:38.459Z,5.73
2019-02-08T20:32:11.134Z,4.27
2019-02-08T20:34:48.560Z,4.83
2019-02-08T20:37:29.376Z,4.53
2019-02-08T20:40:10.476Z,4.47
2019-02-08T20:42:45.071Z,8.10
2019-02-08T20:45:24.582Z,4.83
2019-02-08T20:48:03.502Z,6.77
2019-02-08T20:50:39.599Z,5.33
2019-02-08T20:53:15.449Z,9.43
2019-02-08T20:55:52.298Z,6.97
2019-02-08T20:58:28.346Z,6.00
2019-02-08T21:01:03.276Z,4.60
2019-02-08T21:03:38.610Z,3.20
2019-02-08T21:06:14.688Z,8.77
2019-02-08T21:08:50.753Z,5.53
2019-02-08T21:11:27.365Z,4.30
2019-02-08T21:14:04.798Z,6.30
2019-02-08T21:16:42.173Z,4.18
2019-02-08T21:19:23.377Z,5.60
2019-02-08T21:21:57.023Z,5.60
2019-02-08T21:24:31.818Z,5.17
2019-02-08T21:27:09.243Z,4.37
2019-02-08T21:29:43.840Z,5.10
2019-02-08T21:32:20.292Z,6.20
2019-02-08T21:34:56.477Z,5.73
2019-02-08T21:37:37.158Z,4.23
2019-02-08T21:40:14.839Z,4.13
2019-02-08T21:42:49.520Z,4.80
2019-02-08T21:45:28.112Z,6.70
2019-02-08T21:48:01.334Z,3.80
2019-02-08T21:50:34.083Z,7.37
2019-02-08T21:53:09.239Z,6.37
2019-02-08T21:55:43.071Z,4.10
2019-02-08T21:58:18.019Z,4.50
2019-02-08T22:00:54.549Z,4.57
2019-02-08T22:03:28.746Z,5.80
2019-02-08T22:06:09.302Z,5.43
2019-02-08T22:08:43.122Z,7.63
2019-02-08T22:11:18.762Z,6.93
2019-02-08T22:13:54.847Z,8.00
2019-02-08T22:16:29.592Z,4.23
2019-02-08T22:19:04.206Z,4.03
2019-02-08T22:21:36.957Z,5.00
2019-02-08T22:24:12.232Z,3.87
2019-02-08T22:26:44.959Z,3.13
2019-02-08T22:29:19.543Z,7.90
2019-02-08T22:31:56.366Z,5.37
2019-02-08T22:34:32.390Z,7.00
2019-02-08T22:37:06.025Z,4.97
2019-02-08T22:39:41.388Z,5.57
2019-02-08T22:42:15.735Z,5.43
2019-02-08T22:44:50.628Z,8.93
2019-02-08T22:47:24.215Z,4.37
2019-02-08T22:49:57.802Z,4.93
2019-02-08T22:52:36.749Z,5.90
2019-02-08T22:55:16.006Z,7.22
2019-02-08T22:57:53.648Z,5.73
2019-02-08T23:01:04.790Z,8.87
2019-02-08T23:03:39.255Z,7.87
2019-02-08T23:06:13.771Z,6.45
2019-02-08T23:08:51.586Z,4.77
2019-02-08T23:11:25.349Z,6.93
2019-02-08T23:13:58.875Z,6.30
2019-02-08T23:16:32.851Z,7.72
2019-02-08T23:19:08.804Z,4.10
2019-02-08T23:21:41.646Z,4.60
2019-02-08T23:24:15.807Z,8.23
2019-02-08T23:26:48.616Z,4.87
2019-02-08T23:29:21.432Z,7.23
2019-02-08T23:31:58.007Z,8.33
2019-02-08T23:34:32.018Z,5.15
2019-02-08T23:37:05.872Z,6.67
2019-02-08T23:39:42.585Z,4.00
2019-02-08T23:42:15.686Z,4.13
2019-02-08T23:44:51.749Z,8.43
2019-02-08T23:47:27.131Z,6.07
2019-02-08T23:50:01.554Z,6.83
2019-02-08T23:52:38.044Z,5.57
2019-02-08T23:55:11.477Z,7.10
2019-02-08T23:57:44.356Z,4.73
